Time;durP1;ratioP1;P1;durP2;ratioP2;P2;SDS_P1;SDS_P2;PMS_P1;PMS_P2;Temp;Humidity;BMP_temperature;BMP_pressure;BME280_temperature;BME280_humidity;BME280_pressure;Samples;Min_cycle;Max_cycle;Signal;HPM_P1;HPM_P2
2023/08/06 00:01:22;;;;;;;10.70;9.13;;;14.90;99.90;;;;;;4994066;28;20050;-66
2023/08/06 00:03:49;;;;;;;11.88;9.68;;;14.90;99.90;;;;;;5026683;28;20100;-67
2023/08/06 00:06:15;;;;;;;12.90;9.95;;;15.00;99.90;;;;;;4993222;28;20049;-66
2023/08/06 00:08:42;;;;;;;11.60;9.23;;;14.90;99.90;;;;;;4993450;28;20049;-67
2023/08/06 00:11:08;;;;;;;13.20;9.90;;;15.00;99.90;;;;;;4993732;28;20050;-67
2023/08/06 00:13:34;;;;;;;13.13;10.18;;;15.00;99.90;;;;;;4977996;28;20331;-66
2023/08/06 00:16:19;;;;;;;10.75;8.70;;;15.00;99.90;;;;;;4993540;28;20120;-67
2023/08/06 00:18:46;;;;;;;12.18;9.60;;;15.10;99.90;;;;;;4993547;28;20064;-67
2023/08/06 00:21:12;;;;;;;11.45;9.07;;;14.90;99.90;;;;;;4993765;28;20081;-66
2023/08/06 00:23:40;;;;;;;11.85;9.85;;;14.90;99.90;;;;;;4993912;28;20072;-67
2023/08/06 00:26:06;;;;;;;10.77;9.63;;;15.00;99.90;;;;;;5010785;28;20046;-66
2023/08/06 00:28:32;;;;;;;11.00;8.70;;;14.80;99.90;;;;;;5010442;28;20472;-66
2023/08/06 00:30:58;;;;;;;10.90;9.77;;;15.00;99.90;;;;;;5011406;28;20116;-66
2023/08/06 00:33:25;;;;;;;10.38;9.02;;;14.90;99.90;;;;;;4993729;28;20349;-67
2023/08/06 00:35:52;;;;;;;10.60;9.27;;;15.00;99.90;;;;;;5010791;28;20069;-66
2023/08/06 00:38:18;;;;;;;11.45;9.25;;;14.80;99.90;;;;;;4993858;28;20108;-67
2023/08/06 00:40:44;;;;;;;12.65;9.48;;;14.90;99.90;;;;;;5011345;28;20478;-66
2023/08/06 00:43:11;;;;;;;11.90;9.75;;;14.90;99.90;;;;;;4979627;28;20059;-66
2023/08/06 00:45:37;;;;;;;11.88;9.38;;;14.90;99.90;;;;;;4991797;28;20050;-66
2023/08/06 00:48:05;;;;;;;12.00;9.15;;;14.90;99.90;;;;;;4974696;28;20462;-67
2023/08/06 00:50:31;;;;;;;13.13;9.65;;;14.90;99.90;;;;;;4991979;28;20061;-66
2023/08/06 00:52:58;;;;;;;11.65;9.40;;;14.70;99.90;;;;;;4991416;28;20466;-66
2023/08/06 00:55:25;;;;;;;12.25;8.82;;;14.80;99.90;;;;;;4976723;28;20062;-66
2023/08/06 00:57:52;;;;;;;11.57;9.32;;;14.60;99.90;;;;;;4977842;28;20061;-66
2023/08/06 01:00:20;;;;;;;11.20;8.75;;;14.70;99.90;;;;;;4977565;28;20050;-66
2023/08/06 01:02:48;;;;;;;12.95;9.35;;;14.60;99.90;;;;;;4977577;28;20054;-66
2023/08/06 01:05:15;;;;;;;10.23;8.93;;;14.70;99.90;;;;;;4960871;28;20465;-66
2023/08/06 01:08:08;;;;;;;11.80;8.73;;;14.70;99.90;;;;;;4977094;28;20443;-67
2023/08/06 01:10:50;;;;;;;12.32;9.48;;;14.80;99.90;;;;;;4977938;28;20054;-66
2023/08/06 01:13:43;;;;;;;10.73;8.60;;;14.60;99.90;;;;;;4961722;28;20455;-66
2023/08/06 01:16:11;;;;;;;10.75;8.88;;;14.70;99.90;;;;;;4976632;28;20062;-67
2023/08/06 01:18:39;;;;;;;12.15;8.98;;;14.60;99.90;;;;;;4976871;28;20105;-66
2023/08/06 01:21:05;;;;;;;11.38;8.73;;;14.60;99.90;;;;;;4977615;28;20180;-67
2023/08/06 01:23:33;;;;;;;11.23;8.73;;;14.60;99.90;;;;;;4977400;28;20375;-66
2023/08/06 01:26:02;;;;;;;12.50;9.65;;;14.70;99.90;;;;;;4976525;28;20352;-67
2023/08/06 01:28:50;;;;;;;12.98;9.57;;;14.60;99.90;;;;;;4976738;28;20765;-66
2023/08/06 01:31:31;;;;;;;11.93;9.13;;;14.60;99.90;;;;;;4977247;28;20289;-66
2023/08/06 01:34:00;;;;;;;11.77;9.10;;;14.60;99.90;;;;;;4994139;28;20054;-66
2023/08/06 01:36:27;;;;;;;10.48;8.98;;;14.60;99.90;;;;;;4994061;28;20066;-66
2023/08/06 01:38:54;;;;;;;13.45;9.15;;;14.60;99.90;;;;;;4993739;28;20451;-67
2023/08/06 01:41:20;;;;;;;11.15;8.52;;;14.60;99.90;;;;;;4994037;28;20046;-66
2023/08/06 01:43:46;;;;;;;12.45;9.18;;;14.60;99.90;;;;;;4993839;28;20058;-66
2023/08/06 01:46:13;;;;;;;11.10;9.23;;;14.40;99.90;;;;;;4994432;28;20046;-66
2023/08/06 01:48:39;;;;;;;11.77;8.90;;;14.40;99.90;;;;;;4993731;28;20177;-67
2023/08/06 01:51:06;;;;;;;11.88;8.77;;;14.40;99.90;;;;;;4994004;28;20462;-67
2023/08/06 01:53:32;;;;;;;12.40;8.95;;;14.40;99.90;;;;;;4994246;28;20069;-66
2023/08/06 01:55:59;;;;;;;10.70;8.95;;;14.30;99.90;;;;;;4993876;28;20414;-66
2023/08/06 01:58:25;;;;;;;12.30;8.98;;;14.40;99.90;;;;;;4993450;28;20050;-66
2023/08/06 02:00:51;;;;;;;11.95;9.10;;;14.40;99.90;;;;;;4976846;28;20116;-66
2023/08/06 02:03:18;;;;;;;14.40;8.88;;;14.40;99.90;;;;;;4977090;28;20058;-66
2023/08/06 02:05:45;;;;;;;11.48;9.25;;;14.40;99.90;;;;;;4993000;28;20042;-67
2023/08/06 02:08:12;;;;;;;13.75;9.35;;;14.40;99.90;;;;;;4960018;28;20061;-66
2023/08/06 02:10:38;;;;;;;10.05;8.70;;;14.50;99.90;;;;;;4976203;28;20046;-66
2023/08/06 02:13:04;;;;;;;10.48;8.60;;;14.50;99.90;;;;;;4976531;28;20050;-66
2023/08/06 02:15:31;;;;;;;11.13;9.02;;;14.50;99.90;;;;;;4975635;28;20069;-66
2023/08/06 02:17:57;;;;;;;11.98;9.63;;;14.40;99.90;;;;;;4993026;28;20061;-66
2023/08/06 02:20:23;;;;;;;11.57;9.68;;;14.40;99.90;;;;;;4975835;28;20051;-65
2023/08/06 02:22:49;;;;;;;10.93;8.48;;;14.40;99.90;;;;;;4976511;28;20050;-66
2023/08/06 02:25:16;;;;;;;12.15;9.63;;;14.40;99.90;;;;;;4975852;28;20120;-66
2023/08/06 02:27:43;;;;;;;11.38;8.88;;;14.30;99.90;;;;;;4977512;28;20050;-65
2023/08/06 02:30:10;;;;;;;12.68;9.48;;;14.40;99.90;;;;;;4975792;28;20085;-68
2023/08/06 02:32:36;;;;;;;12.25;10.15;;;14.40;99.90;;;;;;4976075;28;20046;-66
2023/08/06 02:35:03;;;;;;;13.40;9.07;;;14.50;99.90;;;;;;4975690;28;20057;-65
2023/08/06 02:37:29;;;;;;;11.32;9.82;;;14.30;99.90;;;;;;4975811;28;20058;-65
2023/08/06 02:39:56;;;;;;;13.77;9.73;;;14.50;99.90;;;;;;4975911;28;20057;-66
2023/08/06 02:42:23;;;;;;;12.45;9.75;;;14.40;99.90;;;;;;4975821;28;20062;-66
2023/08/06 02:44:49;;;;;;;11.52;9.77;;;14.30;99.90;;;;;;4959430;28;20054;-65
2023/08/06 02:47:15;;;;;;;12.18;9.98;;;14.40;99.90;;;;;;4993550;28;20054;-66
2023/08/06 02:49:43;;;;;;;12.48;9.43;;;14.40;99.90;;;;;;4992678;28;20050;-66
2023/08/06 02:52:09;;;;;;;14.90;9.52;;;14.30;99.90;;;;;;4993237;28;20050;-68
2023/08/06 02:54:35;;;;;;;13.63;9.77;;;14.30;99.90;;;;;;4992154;28;20444;-66
2023/08/06 02:57:01;;;;;;;12.07;10.10;;;14.50;99.90;;;;;;4992735;28;20054;-65
2023/08/06 02:59:27;;;;;;;12.27;10.07;;;14.40;99.90;;;;;;4992536;28;20064;-66
2023/08/06 03:01:54;;;;;;;13.02;10.30;;;14.40;99.90;;;;;;4996469;28;20065;-65
2023/08/06 03:04:20;;;;;;;13.48;9.70;;;14.30;99.90;;;;;;5002563;28;20069;-65
2023/08/06 03:06:46;;;;;;;14.88;10.45;;;14.30;99.90;;;;;;5001926;28;20038;-66
2023/08/06 03:09:12;;;;;;;11.63;10.43;;;14.30;99.90;;;;;;5000272;28;20046;-65
2023/08/06 03:11:40;;;;;;;11.85;10.32;;;14.30;99.90;;;;;;4983593;28;20062;-67
2023/08/06 03:14:06;;;;;;;12.80;10.35;;;14.30;99.90;;;;;;4967453;28;20402;-66
2023/08/06 03:16:34;;;;;;;12.18;9.95;;;14.30;99.90;;;;;;4982510;28;20398;-66
2023/08/06 03:19:07;;;;;;;12.65;9.88;;;14.40;99.90;;;;;;4976749;28;20105;-65
2023/08/06 03:21:33;;;;;;;12.38;9.85;;;14.40;99.90;;;;;;4989624;28;20113;-67
2023/08/06 03:24:00;;;;;;;12.38;10.32;;;14.50;99.90;;;;;;4974002;28;20487;-65
2023/08/06 03:26:26;;;;;;;12.70;10.60;;;14.50;99.90;;;;;;4974737;28;20061;-66
2023/08/06 03:28:52;;;;;;;12.90;10.38;;;14.40;99.90;;;;;;4991517;28;20471;-65
2023/08/06 03:31:18;;;;;;;12.40;9.55;;;14.50;99.90;;;;;;4974686;28;20046;-64
2023/08/06 03:33:45;;;;;;;13.63;9.68;;;14.40;99.90;;;;;;4973731;28;20046;-67
2023/08/06 03:36:11;;;;;;;13.88;9.57;;;14.50;99.90;;;;;;4991966;28;20046;-65
2023/08/06 03:38:37;;;;;;;12.48;9.93;;;14.50;99.90;;;;;;4974117;28;20061;-66
2023/08/06 03:41:03;;;;;;;10.80;8.60;;;14.40;99.90;;;;;;4974289;28;20050;-66
2023/08/06 03:43:30;;;;;;;13.93;9.82;;;14.40;99.90;;;;;;5008228;28;20049;-67
2023/08/06 03:45:56;;;;;;;12.10;8.68;;;14.40;99.90;;;;;;5011409;28;20050;-65
2023/08/06 03:48:22;;;;;;;13.55;9.73;;;14.60;99.90;;;;;;5011498;28;20386;-66
2023/08/06 03:50:48;;;;;;;12.00;9.75;;;14.50;99.90;;;;;;5011966;28;20054;-65
2023/08/06 03:53:15;;;;;;;11.30;9.38;;;14.50;99.90;;;;;;5011940;28;20241;-67
2023/08/06 03:55:41;;;;;;;10.90;9.18;;;14.50;99.90;;;;;;4993900;28;20065;-66
2023/08/06 03:58:08;;;;;;;12.15;9.30;;;14.50;99.90;;;;;;5011784;28;20144;-66
2023/08/06 04:00:34;;;;;;;11.40;9.27;;;14.40;99.90;;;;;;5011832;28;20042;-65
2023/08/06 04:03:00;;;;;;;10.55;9.43;;;14.50;99.90;;;;;;5011798;28;20081;-65
2023/08/06 04:05:26;;;;;;;11.15;9.70;;;14.40;99.90;;;;;;5011038;28;20049;-65
2023/08/06 04:07:53;;;;;;;13.43;9.38;;;14.50;99.90;;;;;;5011308;28;20050;-67
2023/08/06 04:10:19;;;;;;;10.85;9.60;;;14.40;99.90;;;;;;5011324;28;20046;-65
2023/08/06 04:12:45;;;;;;;11.18;9.48;;;14.30;99.90;;;;;;5011396;28;20145;-66
2023/08/06 04:15:11;;;;;;;11.80;9.85;;;14.40;99.90;;;;;;5010891;28;20042;-66
2023/08/06 04:17:38;;;;;;;12.65;9.30;;;14.40;99.90;;;;;;5011075;28;20054;-65
2023/08/06 04:20:05;;;;;;;11.52;8.85;;;14.20;99.90;;;;;;5011561;28;20050;-67
2023/08/06 04:22:31;;;;;;;11.43;8.75;;;14.40;99.90;;;;;;5010981;28;20046;-66
2023/08/06 04:24:57;;;;;;;11.48;8.60;;;14.40;99.90;;;;;;5010911;28;20084;-66
2023/08/06 04:27:23;;;;;;;10.95;9.50;;;14.30;99.90;;;;;;5011155;28;20050;-65
2023/08/06 04:29:50;;;;;;;9.05;7.88;;;14.40;99.90;;;;;;5014391;28;20476;-65
2023/08/06 04:32:17;;;;;;;13.18;8.68;;;14.40;99.90;;;;;;5015446;28;20123;-68
2023/08/06 04:34:43;;;;;;;10.20;9.07;;;14.40;99.90;;;;;;4997542;28;20046;-65
2023/08/06 04:37:09;;;;;;;11.45;9.15;;;14.30;99.90;;;;;;4997492;28;20470;-65
2023/08/06 04:39:35;;;;;;;11.60;9.10;;;14.30;99.90;;;;;;5015245;28;20060;-65
2023/08/06 04:42:02;;;;;;;10.60;8.77;;;14.30;99.90;;;;;;4997076;28;20054;-65
2023/08/06 04:44:28;;;;;;;10.40;9.07;;;14.30;99.90;;;;;;5014430;28;20572;-66
2023/08/06 04:46:54;;;;;;;13.73;9.57;;;14.30;99.90;;;;;;5014766;28;20053;-67
2023/08/06 04:49:21;;;;;;;10.65;8.93;;;14.40;99.90;;;;;;5014274;28;20061;-65
2023/08/06 04:51:47;;;;;;;10.43;8.80;;;14.50;99.90;;;;;;5014637;28;20058;-65
2023/08/06 04:54:14;;;;;;;12.73;9.02;;;14.40;99.90;;;;;;5014423;28;20339;-65
2023/08/06 04:56:43;;;;;;;11.48;9.60;;;14.40;99.90;;;;;;4997486;28;20053;-66
2023/08/06 04:59:09;;;;;;;12.77;9.30;;;14.50;99.90;;;;;;5014479;28;20050;-66
2023/08/06 05:01:35;;;;;;;12.73;9.25;;;14.40;99.90;;;;;;5014444;28;20421;-66
2023/08/06 05:04:02;;;;;;;10.65;8.93;;;14.40;99.90;;;;;;5014222;28;20125;-65
2023/08/06 05:06:28;;;;;;;12.35;8.93;;;14.40;99.90;;;;;;5014423;28;20152;-65
2023/08/06 05:08:54;;;;;;;12.88;9.27;;;14.30;99.90;;;;;;5014322;28;20052;-67
2023/08/06 05:11:20;;;;;;;10.00;8.65;;;14.40;99.90;;;;;;5014388;28;20117;-65
2023/08/06 05:13:47;;;;;;;10.40;8.98;;;14.30;99.90;;;;;;5013617;28;20488;-66
2023/08/06 05:16:13;;;;;;;10.20;8.75;;;14.40;99.90;;;;;;5014444;28;20050;-65
2023/08/06 05:18:39;;;;;;;13.13;8.95;;;14.50;99.90;;;;;;5013927;28;20061;-67
2023/08/06 05:21:05;;;;;;;13.50;9.55;;;14.30;99.90;;;;;;5014562;28;20378;-66
2023/08/06 05:23:31;;;;;;;12.18;9.95;;;14.40;99.90;;;;;;5013880;28;20050;-65
2023/08/06 05:25:58;;;;;;;13.32;9.63;;;14.50;99.90;;;;;;4996374;28;20120;-65
2023/08/06 05:28:24;;;;;;;11.63;8.80;;;14.40;99.90;;;;;;5014005;28;20120;-66
2023/08/06 05:30:50;;;;;;;10.20;8.82;;;14.60;99.90;;;;;;5014044;28;20046;-65
2023/08/06 05:33:16;;;;;;;12.63;9.07;;;14.60;99.90;;;;;;5013636;28;20061;-67
2023/08/06 05:35:43;;;;;;;11.77;8.98;;;14.50;99.90;;;;;;5013393;28;20427;-65
2023/08/06 05:38:09;;;;;;;11.40;9.80;;;14.50;99.90;;;;;;5013345;28;20046;-68
2023/08/06 05:40:35;;;;;;;12.35;9.18;;;14.70;99.90;;;;;;5013388;28;20057;-65
2023/08/06 05:43:01;;;;;;;12.63;9.65;;;14.50;99.90;;;;;;5012791;28;20442;-65
2023/08/06 05:45:28;;;;;;;10.75;9.40;;;14.60;99.90;;;;;;5013195;28;20050;-65
2023/08/06 05:47:57;;;;;;;11.43;9.07;;;14.60;99.90;;;;;;5013561;28;20388;-65
2023/08/06 05:50:24;;;;;;;11.85;10.23;;;14.60;99.90;;;;;;5013679;28;20045;-65
2023/08/06 05:52:50;;;;;;;11.88;8.60;;;14.70;99.90;;;;;;5014108;28;20049;-65
2023/08/06 05:55:16;;;;;;;11.07;9.30;;;14.60;99.90;;;;;;5013176;28;20384;-68
2023/08/06 05:57:43;;;;;;;10.30;9.20;;;14.80;99.90;;;;;;5013315;28;20060;-65
2023/08/06 06:00:10;;;;;;;10.65;9.10;;;14.70;99.90;;;;;;5013867;28;20159;-67
2023/08/06 06:02:36;;;;;;;10.65;9.10;;;14.80;99.90;;;;;;5013787;28;20167;-65
2023/08/06 06:05:02;;;;;;;12.95;10.35;;;14.80;99.90;;;;;;5013034;28;20053;-66
2023/08/06 06:07:28;;;;;;;11.52;9.32;;;14.90;99.90;;;;;;5013179;28;20460;-68
2023/08/06 06:09:54;;;;;;;14.93;10.00;;;14.90;99.90;;;;;;5013211;28;20042;-66
2023/08/06 06:12:22;;;;;;;12.90;9.48;;;14.90;99.90;;;;;;5013214;28;20046;-66
2023/08/06 06:14:48;;;;;;;11.32;9.95;;;14.80;99.90;;;;;;5012765;28;20339;-66
2023/08/06 06:17:14;;;;;;;10.48;9.02;;;14.90;99.90;;;;;;4995719;28;20435;-67
2023/08/06 06:19:41;;;;;;;11.52;9.25;;;14.90;99.90;;;;;;5012999;28;20486;-64
2023/08/06 06:22:07;;;;;;;12.95;9.65;;;14.80;99.90;;;;;;5012728;28;20425;-65
2023/08/06 06:24:33;;;;;;;10.95;9.15;;;15.00;99.90;;;;;;5012274;28;20045;-65
2023/08/06 06:27:00;;;;;;;12.48;9.10;;;15.00;99.90;;;;;;5012418;28;20064;-64
2023/08/06 06:29:26;;;;;;;9.85;8.77;;;14.90;99.90;;;;;;5012090;28;20116;-65
2023/08/06 06:31:52;;;;;;;10.82;8.93;;;15.00;99.90;;;;;;5012720;28;20052;-64
2023/08/06 06:34:19;;;;;;;13.05;9.63;;;15.10;99.90;;;;;;4994286;28;20473;-64
2023/08/06 06:36:45;;;;;;;10.07;8.63;;;15.00;99.90;;;;;;5011858;28;20487;-65
2023/08/06 06:39:11;;;;;;;10.88;9.25;;;15.00;99.90;;;;;;5009559;28;20050;-66
2023/08/06 06:41:38;;;;;;;11.38;9.02;;;15.10;99.90;;;;;;5023624;28;20099;-65
2023/08/06 06:44:05;;;;;;;11.48;9.02;;;15.20;99.90;;;;;;5026215;28;20049;-66
2023/08/06 06:46:32;;;;;;;9.75;8.70;;;15.20;99.90;;;;;;5031483;28;20111;-65
2023/08/06 06:48:58;;;;;;;16.33;9.63;;;15.20;99.90;;;;;;5028591;28;20766;-65
2023/08/06 06:51:24;;;;;;;12.27;8.77;;;15.20;99.90;;;;;;5030256;28;20454;-65
2023/08/06 06:53:50;;;;;;;11.02;9.07;;;15.10;99.90;;;;;;5031440;28;20417;-65
2023/08/06 06:56:17;;;;;;;12.13;9.35;;;15.30;99.90;;;;;;5028381;28;20081;-67
2023/08/06 06:58:43;;;;;;;11.55;9.57;;;15.30;99.90;;;;;;5027609;28;20041;-65
2023/08/06 07:01:11;;;;;;;10.27;8.43;;;15.30;99.90;;;;;;5031958;28;20060;-66
2023/08/06 07:03:37;;;;;;;11.57;9.05;;;15.20;99.90;;;;;;5031158;28;20053;-66
2023/08/06 07:06:05;;;;;;;12.88;9.35;;;15.30;99.90;;;;;;5028088;28;20057;-65
2023/08/06 07:08:31;;;;;;;11.80;9.55;;;15.40;99.90;;;;;;5011686;28;20042;-66
2023/08/06 07:11:06;;;;;;;11.50;9.48;;;15.40;99.90;;;;;;4994474;28;20114;-65
2023/08/06 07:13:33;;;;;;;11.10;9.55;;;15.50;99.90;;;;;;5010070;28;20041;-64
2023/08/06 07:16:00;;;;;;;11.38;9.38;;;15.50;99.90;;;;;;5010926;28;20046;-66
2023/08/06 07:18:26;;;;;;;10.02;8.95;;;15.40;99.90;;;;;;5010904;28;20053;-67
2023/08/06 07:20:54;;;;;;;10.95;9.85;;;15.50;99.90;;;;;;5011078;28;20049;-63
2023/08/06 07:23:22;;;;;;;10.77;9.63;;;15.40;99.90;;;;;;5010887;28;20382;-65
2023/08/06 07:25:48;;;;;;;12.70;10.20;;;15.40;99.90;;;;;;5011689;28;20109;-67
2023/08/06 07:28:16;;;;;;;11.52;9.77;;;15.50;99.90;;;;;;5011618;28;20148;-67
2023/08/06 07:30:43;;;;;;;11.35;10.15;;;15.60;99.90;;;;;;5011803;28;20061;-64
2023/08/06 07:33:10;;;;;;;12.40;11.10;;;15.40;99.90;;;;;;5011592;28;20124;-69
2023/08/06 07:35:37;;;;;;;12.82;9.82;;;15.50;99.90;;;;;;5012304;28;20140;-65
2023/08/06 07:38:04;;;;;;;12.70;11.30;;;15.50;99.90;;;;;;5012321;28;20041;-65
2023/08/06 07:40:31;;;;;;;13.38;10.68;;;15.60;99.90;;;;;;5016557;28;20046;-66
2023/08/06 07:42:57;;;;;;;12.23;10.98;;;15.80;99.90;;;;;;5011501;28;20470;-66
2023/08/06 07:45:24;;;;;;;11.27;10.07;;;15.60;99.90;;;;;;5011396;28;20046;-65
2023/08/06 07:47:51;;;;;;;12.65;11.35;;;15.80;99.90;;;;;;5011869;28;20343;-67
2023/08/06 07:50:17;;;;;;;11.05;9.80;;;15.80;99.90;;;;;;4993364;28;20486;-65
2023/08/06 07:52:43;;;;;;;12.60;10.38;;;15.90;99.90;;;;;;5010790;28;20042;-65
2023/08/06 07:55:09;;;;;;;12.73;10.70;;;15.90;99.90;;;;;;5009035;28;20046;-69
2023/08/06 07:57:37;;;;;;;12.23;10.95;;;16.00;99.90;;;;;;5010679;28;20077;-65
2023/08/06 08:00:05;;;;;;;11.70;10.60;;;16.00;99.90;;;;;;4994032;28;20049;-66
2023/08/06 08:02:31;;;;;;;12.25;11.00;;;16.00;99.90;;;;;;4994075;28;20061;-66
2023/08/06 08:04:57;;;;;;;11.77;10.57;;;15.90;99.90;;;;;;4997153;28;20493;-66
2023/08/06 08:07:24;;;;;;;13.55;11.10;;;16.00;99.90;;;;;;4997658;28;20050;-66
2023/08/06 08:09:50;;;;;;;11.85;10.48;;;16.10;99.90;;;;;;4999925;28;20119;-66
2023/08/06 08:12:16;;;;;;;12.23;10.95;;;16.10;99.90;;;;;;4995542;28;20494;-65
2023/08/06 08:14:45;;;;;;;13.07;11.75;;;16.10;99.90;;;;;;5013293;28;20448;-65
2023/08/06 08:17:11;;;;;;;12.55;11.30;;;16.30;99.90;;;;;;4997673;28;20065;-65
2023/08/06 08:19:38;;;;;;;12.98;11.63;;;16.30;99.90;;;;;;4997887;28;20065;-65
2023/08/06 08:22:04;;;;;;;12.43;11.13;;;16.40;99.90;;;;;;4997611;28;20137;-65
2023/08/06 08:24:30;;;;;;;12.57;11.25;;;16.60;99.90;;;;;;4997016;28;20046;-65
2023/08/06 08:26:57;;;;;;;12.48;11.20;;;16.60;99.90;;;;;;5018595;28;20185;-69
2023/08/06 08:29:23;;;;;;;12.35;11.07;;;16.60;99.90;;;;;;5014239;28;20041;-65
2023/08/06 08:31:50;;;;;;;11.63;10.30;;;16.70;99.90;;;;;;5014558;28;20045;-65
2023/08/06 08:34:16;;;;;;;12.45;11.15;;;16.70;99.90;;;;;;5014566;28;20054;-65
2023/08/06 08:36:43;;;;;;;12.85;10.23;;;16.60;99.90;;;;;;5012007;28;20053;-64
2023/08/06 08:39:09;;;;;;;12.30;11.10;;;16.80;99.90;;;;;;4996050;28;20045;-65
2023/08/06 08:41:37;;;;;;;11.40;10.10;;;16.90;99.90;;;;;;4996407;28;20042;-65
2023/08/06 08:44:08;;;;;;;12.32;10.85;;;17.00;99.90;;;;;;4996437;28;20068;-65
2023/08/06 08:46:38;;;;;;;11.13;9.85;;;16.90;99.90;;;;;;4997756;28;20073;-65
2023/08/06 08:49:04;;;;;;;10.75;9.32;;;17.00;99.90;;;;;;4996805;28;20403;-65
2023/08/06 08:51:32;;;;;;;10.57;9.40;;;17.10;99.90;;;;;;4997287;28;20340;-65
2023/08/06 08:53:59;;;;;;;11.98;9.70;;;17.10;99.90;;;;;;5027038;28;20109;-65
2023/08/06 08:56:25;;;;;;;10.77;9.75;;;17.30;99.90;;;;;;4997076;28;20054;-65
2023/08/06 08:58:54;;;;;;;10.70;9.70;;;17.40;99.90;;;;;;4996864;28;20058;-65
2023/08/06 09:01:22;;;;;;;11.57;10.48;;;17.50;99.90;;;;;;4994300;28;20125;-66
2023/08/06 09:03:51;;;;;;;10.57;9.48;;;17.70;99.90;;;;;;4996375;28;20385;-65
2023/08/06 09:06:20;;;;;;;11.05;9.85;;;17.80;99.90;;;;;;4994171;28;20045;-64
2023/08/06 09:09:08;;;;;;;9.85;8.85;;;18.00;99.90;;;;;;5013763;28;20037;-64
2023/08/06 09:11:42;;;;;;;9.48;8.57;;;17.90;99.90;;;;;;5014045;28;20053;-64
2023/08/06 09:14:08;;;;;;;9.80;8.90;;;17.90;99.90;;;;;;5013277;28;20073;-63
2023/08/06 09:16:35;;;;;;;11.60;10.10;;;17.90;99.90;;;;;;5013839;28;20042;-64
2023/08/06 09:19:13;;;;;;;10.90;9.80;;;17.90;99.90;;;;;;5014059;28;20527;-64
2023/08/06 09:21:40;;;;;;;10.60;9.60;;;18.00;99.90;;;;;;5013958;28;20116;-64
2023/08/06 09:24:10;;;;;;;10.95;9.75;;;18.10;99.90;;;;;;5014108;28;20053;-64
2023/08/06 09:26:38;;;;;;;10.98;9.98;;;18.30;99.90;;;;;;5014430;28;20053;-64
2023/08/06 09:29:08;;;;;;;10.57;9.45;;;18.40;99.90;;;;;;5015907;28;20049;-64
2023/08/06 09:31:42;;;;;;;10.98;9.65;;;18.50;99.90;;;;;;5029647;28;20400;-64
2023/08/06 09:34:33;;;;;;;10.10;9.05;;;18.40;99.90;;;;;;5012219;28;20061;-66
2023/08/06 09:37:16;;;;;;;9.95;8.95;;;18.50;99.90;;;;;;4983233;28;20081;-66
2023/08/06 09:39:49;;;;;;;9.48;8.68;;;18.60;99.90;;;;;;4992676;28;20128;-66
2023/08/06 09:42:18;;;;;;;10.00;8.82;;;18.80;99.90;;;;;;5011027;28;20041;-64
2023/08/06 09:44:44;;;;;;;9.95;9.02;;;19.00;99.90;;;;;;5010711;28;20064;-65
2023/08/06 09:47:10;;;;;;;11.02;9.90;;;19.20;99.90;;;;;;5011092;28;20042;-64
2023/08/06 09:49:37;;;;;;;10.48;9.38;;;19.40;99.90;;;;;;5013192;28;20042;-64
2023/08/06 09:52:04;;;;;;;10.25;9.13;;;19.50;99.90;;;;;;5012769;28;20042;-64
2023/08/06 09:54:33;;;;;;;10.63;9.60;;;19.60;99.90;;;;;;5012553;28;20140;-64
2023/08/06 09:57:00;;;;;;;9.27;8.40;;;19.70;99.90;;;;;;4996184;28;20065;-65
2023/08/06 09:59:27;;;;;;;9.85;8.85;;;19.90;99.90;;;;;;4993313;28;20685;-64
2023/08/06 10:01:57;;;;;;;9.93;8.75;;;20.00;99.90;;;;;;4991337;28;20065;-64
2023/08/06 10:04:23;;;;;;;8.48;7.68;;;20.10;99.90;;;;;;4994752;28;20108;-64
2023/08/06 10:06:50;;;;;;;8.40;7.68;;;20.10;99.90;;;;;;4995508;28;20054;-64
2023/08/06 10:09:18;;;;;;;8.73;6.85;;;20.10;99.90;;;;;;4994262;28;20418;-64
2023/08/06 10:11:50;;;;;;;6.45;5.72;;;20.20;99.90;;;;;;4995789;28;20041;-64
2023/08/06 10:14:35;;;;;;;6.47;5.72;;;20.50;99.90;;;;;;4995360;28;20046;-64
2023/08/06 10:17:01;;;;;;;7.50;6.80;;;20.70;99.90;;;;;;4995401;28;20104;-64
2023/08/06 10:19:30;;;;;;;6.90;6.28;;;20.90;99.90;;;;;;4994974;28;20049;-65
2023/08/06 10:22:27;;;;;;;6.95;6.35;;;20.80;99.90;;;;;;4979257;28;20046;-64
2023/08/06 10:24:55;;;;;;;7.72;7.03;;;21.10;99.90;;;;;;5009425;28;20370;-65
2023/08/06 10:27:35;;;;;;;7.70;7.00;;;21.00;99.90;;;;;;5010960;28;20104;-64
2023/08/06 10:30:31;;;;;;;7.43;5.60;;;21.20;99.90;;;;;;5012413;28;20058;-64
2023/08/06 10:33:01;;;;;;;7.75;6.82;;;21.00;99.90;;;;;;5010462;28;20057;-64
2023/08/06 10:35:45;;;;;;;7.45;6.32;;;21.10;99.90;;;;;;5011557;28;20888;-64
2023/08/06 10:38:21;;;;;;;6.90;5.93;;;21.00;99.90;;;;;;4994253;28;20051;-67
2023/08/06 10:41:35;;;;;;;7.22;6.43;;;20.90;99.90;;;;;;4980673;28;21388;-67
2023/08/06 10:44:19;;;;;;;7.15;6.45;;;20.90;99.90;;;;;;4974182;28;20059;-65
2023/08/06 10:46:49;;;;;;;6.43;5.72;;;21.00;99.90;;;;;;4989024;28;20050;-66
2023/08/06 10:49:18;;;;;;;6.88;5.65;;;20.90;99.90;;;;;;4992119;28;20376;-65
2023/08/06 10:51:51;;;;;;;6.22;5.65;;;21.00;99.90;;;;;;4973287;28;20056;-65
2023/08/06 10:54:18;;;;;;;8.65;6.05;;;21.30;99.90;;;;;;4992853;28;20436;-65
2023/08/06 10:56:44;;;;;;;7.07;6.38;;;21.40;99.90;;;;;;4992911;28;20105;-65
2023/08/06 10:59:14;;;;;;;6.45;5.85;;;21.40;99.90;;;;;;4993383;28;20046;-65
2023/08/06 11:01:41;;;;;;;6.22;5.63;;;21.60;99.90;;;;;;4974878;28;20511;-64
2023/08/06 11:04:07;;;;;;;5.80;5.25;;;21.70;99.90;;;;;;4976000;28;20096;-65
2023/08/06 11:06:34;;;;;;;6.68;5.82;;;21.60;99.90;;;;;;4974759;28;20054;-65
2023/08/06 11:09:03;;;;;;;5.75;5.25;;;21.60;99.90;;;;;;4974801;28;20447;-65
2023/08/06 11:11:29;;;;;;;6.60;5.95;;;22.10;99.90;;;;;;4992328;28;20075;-66
2023/08/06 11:13:55;;;;;;;7.10;5.93;;;21.90;99.90;;;;;;4975236;28;20058;-65
2023/08/06 11:16:26;;;;;;;6.43;5.80;;;21.90;99.90;;;;;;4992889;28;20050;-65
2023/08/06 11:18:54;;;;;;;5.88;4.63;;;21.80;99.90;;;;;;4975641;28;20046;-65
2023/08/06 11:21:21;;;;;;;6.15;4.97;;;21.80;99.90;;;;;;4992491;28;20113;-65
2023/08/06 11:23:47;;;;;;;7.07;5.63;;;21.80;99.90;;;;;;4992369;28;20042;-65
2023/08/06 11:26:23;;;;;;;6.10;5.50;;;21.90;99.90;;;;;;4975578;28;20049;-65
2023/08/06 11:28:49;;;;;;;7.35;6.07;;;21.80;99.90;;;;;;4992180;28;20117;-66
2023/08/06 11:31:23;;;;;;;5.82;5.20;;;21.80;99.90;;;;;;4974537;28;20078;-65
2023/08/06 11:33:53;;;;;;;5.90;5.10;;;21.80;99.90;;;;;;4991658;28;20060;-65
2023/08/06 11:36:48;;;;;;;6.20;5.22;;;21.80;99.90;;;;;;4974629;28;20076;-65
2023/08/06 11:39:16;;;;;;;3.58;3.15;;;21.90;99.90;;;;;;4961998;28;20054;-65
2023/08/06 11:41:44;;;;;;;3.67;3.22;;;21.80;99.90;;;;;;4991701;28;20343;-64
2023/08/06 11:44:12;;;;;;;5.40;3.83;;;21.80;99.90;;;;;;4977622;28;20054;-65
2023/08/06 11:46:55;;;;;;;4.18;3.22;;;21.80;99.90;;;;;;4979787;28;20050;-65
2023/08/06 11:49:41;;;;;;;;;;;21.90;99.90;;;;;;4983759;28;20138;-64
2023/08/06 11:52:13;;;;;;;5.50;3.20;;;21.90;99.90;;;;;;4993100;28;20036;-65
2023/08/06 11:54:40;;;;;;;3.40;3.05;;;21.90;99.90;;;;;;4993201;28;20049;-64
2023/08/06 11:57:06;;;;;;;4.10;3.13;;;21.80;99.90;;;;;;4993244;28;20382;-65
2023/08/06 11:59:33;;;;;;;4.30;3.10;;;21.80;99.90;;;;;;4993661;28;20042;-64
2023/08/06 12:02:05;;;;;;;3.47;2.88;;;22.00;99.90;;;;;;4975862;28;20078;-65
2023/08/06 12:04:32;;;;;;;5.70;3.22;;;22.00;99.90;;;;;;4992997;28;20057;-65
2023/08/06 12:07:07;;;;;;;5.18;3.28;;;22.20;99.90;;;;;;4993216;28;20266;-65
2023/08/06 12:09:34;;;;;;;4.22;3.10;;;22.10;99.90;;;;;;5006770;28;20098;-65
2023/08/06 12:12:00;;;;;;;5.50;3.30;;;21.90;99.90;;;;;;5011944;28;20108;-65
2023/08/06 12:14:26;;;;;;;4.55;3.47;;;21.90;99.90;;;;;;5012322;28;20049;-64
2023/08/06 12:16:52;;;;;;;3.55;3.15;;;22.10;99.90;;;;;;5012393;28;20046;-64
2023/08/06 12:19:18;;;;;;;5.25;3.50;;;22.10;99.90;;;;;;5011720;28;20062;-64
2023/08/06 12:21:45;;;;;;;3.40;3.08;;;22.20;99.90;;;;;;5011262;28;20061;-65
2023/08/06 12:24:11;;;;;;;4.45;3.72;;;22.20;99.90;;;;;;5010444;28;20049;-65
2023/08/06 12:26:37;;;;;;;4.70;3.60;;;22.30;99.90;;;;;;5012122;28;20101;-65
2023/08/06 12:29:04;;;;;;;4.90;3.30;;;22.40;99.90;;;;;;5002044;28;20042;-64
2023/08/06 12:31:30;;;;;;;4.03;3.10;;;22.30;99.90;;;;;;4991996;28;20056;-65
2023/08/06 12:33:56;;;;;;;5.55;3.25;;;21.90;99.90;;;;;;4992043;28;20156;-65
2023/08/06 12:36:22;;;;;;;6.20;3.45;;;21.80;99.90;;;;;;4992680;28;20077;-65
2023/08/06 12:38:49;;;;;;;4.55;3.25;;;21.80;99.90;;;;;;4992607;28;20098;-65
2023/08/06 12:41:15;;;;;;;3.90;3.22;;;21.50;99.90;;;;;;5004158;28;20065;-64
2023/08/06 12:43:41;;;;;;;3.95;3.28;;;21.10;99.90;;;;;;4994042;28;20057;-65